FRS28 EDAV-EDVU
Flight info
| Callsign | FRS28 |
|---|---|
| Flight time | 0h 45m |
| Altitude | 1500 |
| Route | DIRECT |
| Aircraft | COL4/L-V/N |
Departure
| Time | 2026-05-07 14:01 |
|---|---|
| Airport | Eberswalde-Finow Airfield (EDAV) |
Arrival
| Time | 2026-05-07 14:46 |
|---|---|
| Airport | Uelzen Airfield (EDVU) |
| Time | Latitude | Longitude | Altitude | Speed | Heading |
|---|---|---|---|---|---|
| 2026-05-07 13:58 | 52.82734 | 13.70945 | 119 ft | 0 kts | 3° |
| 2026-05-07 13:59 | 52.82740 | 13.70947 | 120 ft | 3 kts | 18° |
| 2026-05-07 13:59 | 52.82725 | 13.70979 | 123 ft | 7 kts | 175° |
| 2026-05-07 13:59 | 52.82668 | 13.70964 | 123 ft | 12 kts | 189° |
| 2026-05-07 13:59 | 52.82604 | 13.70946 | 122 ft | 14 kts | 194° |
| 2026-05-07 14:00 | 52.82599 | 13.70513 | 124 ft | 64 kts | 285° |
| 2026-05-07 14:00 | 52.82645 | 13.69924 | 169 ft | 87 kts | 275° |
| 2026-05-07 14:00 | 52.82639 | 13.68790 | 350 ft | 114 kts | 265° |
| 2026-05-07 14:00 | 52.82665 | 13.67311 | 463 ft | 140 kts | 282° |
| 2026-05-07 14:01 | 52.82792 | 13.65658 | 684 ft | 152 kts | 280° |
| 2026-05-07 14:01 | 52.82911 | 13.63861 | 899 ft | 159 kts | 281° |
| 2026-05-07 14:01 | 52.83036 | 13.62015 | 1076 ft | 166 kts | 281° |
| 2026-05-07 14:01 | 52.83166 | 13.60075 | 1235 ft | 170 kts | 280° |
| 2026-05-07 14:02 | 52.83286 | 13.58176 | 1391 ft | 165 kts | 279° |
| 2026-05-07 14:02 | 52.83411 | 13.56301 | 1491 ft | 165 kts | 281° |
| 2026-05-07 14:02 | 52.83536 | 13.54401 | 1495 ft | 167 kts | 281° |
| 2026-05-07 14:02 | 52.83656 | 13.52512 | 1497 ft | 166 kts | 279° |
| 2026-05-07 14:03 | 52.83784 | 13.50610 | 1495 ft | 166 kts | 279° |
| 2026-05-07 14:03 | 52.83908 | 13.48732 | 1497 ft | 165 kts | 279° |
| 2026-05-07 14:03 | 52.84031 | 13.46836 | 1500 ft | 165 kts | 279° |
| 2026-05-07 14:03 | 52.84155 | 13.44961 | 1499 ft | 162 kts | 279° |
| 2026-05-07 14:04 | 52.84271 | 13.43118 | 1499 ft | 162 kts | 280° |
| 2026-05-07 14:04 | 52.84397 | 13.41239 | 1497 ft | 163 kts | 279° |
| 2026-05-07 14:04 | 52.84513 | 13.39395 | 1498 ft | 163 kts | 281° |
| 2026-05-07 14:04 | 52.84637 | 13.37500 | 1501 ft | 166 kts | 279° |
| 2026-05-07 14:05 | 52.84760 | 13.35621 | 1501 ft | 166 kts | 279° |
| 2026-05-07 14:05 | 52.84886 | 13.33702 | 1508 ft | 168 kts | 279° |
| 2026-05-07 14:05 | 52.85004 | 13.31771 | 1504 ft | 170 kts | 278° |
| 2026-05-07 14:05 | 52.85123 | 13.29832 | 1504 ft | 168 kts | 278° |
| 2026-05-07 14:06 | 52.85244 | 13.27918 | 1504 ft | 169 kts | 278° |
| 2026-05-07 14:06 | 52.85366 | 13.25973 | 1506 ft | 169 kts | 279° |
| 2026-05-07 14:06 | 52.85487 | 13.24020 | 1503 ft | 170 kts | 279° |
| 2026-05-07 14:06 | 52.85611 | 13.22104 | 1506 ft | 169 kts | 279° |
| 2026-05-07 14:07 | 52.85735 | 13.20164 | 1504 ft | 169 kts | 279° |
| 2026-05-07 14:07 | 52.85853 | 13.18227 | 1508 ft | 169 kts | 279° |
| 2026-05-07 14:07 | 52.85971 | 13.16275 | 1506 ft | 170 kts | 278° |
| 2026-05-07 14:07 | 52.86095 | 13.14340 | 1502 ft | 171 kts | 280° |
| 2026-05-07 14:08 | 52.86225 | 13.12377 | 1502 ft | 172 kts | 278° |
| 2026-05-07 14:08 | 52.86347 | 13.10409 | 1501 ft | 171 kts | 279° |
| 2026-05-07 14:08 | 52.86464 | 13.08466 | 1506 ft | 170 kts | 279° |
| 2026-05-07 14:08 | 52.86591 | 13.06504 | 1503 ft | 171 kts | 278° |
| 2026-05-07 14:09 | 52.86712 | 13.04569 | 1506 ft | 170 kts | 279° |
| 2026-05-07 14:09 | 52.86831 | 13.02592 | 1501 ft | 172 kts | 279° |
| 2026-05-07 14:09 | 52.86949 | 13.00627 | 1499 ft | 170 kts | 278° |
| 2026-05-07 14:09 | 52.87069 | 12.98674 | 1500 ft | 171 kts | 279° |
| 2026-05-07 14:10 | 52.87190 | 12.96716 | 1498 ft | 171 kts | 279° |
| 2026-05-07 14:10 | 52.87312 | 12.94762 | 1504 ft | 172 kts | 279° |
| 2026-05-07 14:10 | 52.87434 | 12.92782 | 1505 ft | 173 kts | 278° |
| 2026-05-07 14:10 | 52.87553 | 12.90808 | 1502 ft | 173 kts | 278° |
| 2026-05-07 14:11 | 52.87679 | 12.88810 | 1500 ft | 173 kts | 278° |
| 2026-05-07 14:11 | 52.87794 | 12.86831 | 1499 ft | 172 kts | 278° |
| 2026-05-07 14:11 | 52.87906 | 12.84883 | 1504 ft | 172 kts | 278° |
| 2026-05-07 14:11 | 52.88023 | 12.82893 | 1504 ft | 173 kts | 278° |
| 2026-05-07 14:12 | 52.88143 | 12.80902 | 1501 ft | 173 kts | 278° |
| 2026-05-07 14:12 | 52.88255 | 12.78929 | 1496 ft | 172 kts | 278° |
| 2026-05-07 14:12 | 52.88376 | 12.76971 | 1497 ft | 170 kts | 278° |
| 2026-05-07 14:12 | 52.88492 | 12.75017 | 1495 ft | 171 kts | 278° |
| 2026-05-07 14:13 | 52.88611 | 12.73071 | 1497 ft | 170 kts | 278° |
| 2026-05-07 14:13 | 52.88729 | 12.71107 | 1496 ft | 171 kts | 278° |
| 2026-05-07 14:13 | 52.88846 | 12.69152 | 1497 ft | 173 kts | 278° |
| 2026-05-07 14:13 | 52.88957 | 12.67155 | 1495 ft | 173 kts | 278° |
| 2026-05-07 14:14 | 52.89073 | 12.65198 | 1497 ft | 173 kts | 278° |
| 2026-05-07 14:14 | 52.89192 | 12.63200 | 1499 ft | 175 kts | 278° |
| 2026-05-07 14:14 | 52.89312 | 12.61192 | 1490 ft | 173 kts | 278° |
| 2026-05-07 14:14 | 52.89427 | 12.59233 | 1494 ft | 171 kts | 278° |
| 2026-05-07 14:15 | 52.89541 | 12.57275 | 1504 ft | 171 kts | 278° |
| 2026-05-07 14:15 | 52.89659 | 12.55314 | 1501 ft | 170 kts | 279° |
| 2026-05-07 14:15 | 52.89772 | 12.53374 | 1496 ft | 171 kts | 279° |
| 2026-05-07 14:15 | 52.89884 | 12.51404 | 1504 ft | 172 kts | 278° |
| 2026-05-07 14:16 | 52.89995 | 12.49433 | 1496 ft | 173 kts | 279° |
| 2026-05-07 14:16 | 52.90099 | 12.47440 | 1496 ft | 173 kts | 279° |
| 2026-05-07 14:16 | 52.90216 | 12.45470 | 1492 ft | 173 kts | 278° |
| 2026-05-07 14:16 | 52.90333 | 12.43480 | 1490 ft | 174 kts | 278° |
| 2026-05-07 14:17 | 52.90447 | 12.41484 | 1494 ft | 173 kts | 278° |
| 2026-05-07 14:17 | 52.90563 | 12.39499 | 1493 ft | 174 kts | 278° |
| 2026-05-07 14:17 | 52.90679 | 12.37497 | 1492 ft | 171 kts | 279° |
| 2026-05-07 14:17 | 52.90787 | 12.35548 | 1506 ft | 171 kts | 278° |
| 2026-05-07 14:18 | 52.90902 | 12.33548 | 1502 ft | 174 kts | 279° |
| 2026-05-07 14:18 | 52.91017 | 12.31562 | 1500 ft | 174 kts | 278° |
| 2026-05-07 14:18 | 52.91127 | 12.29553 | 1503 ft | 174 kts | 278° |
| 2026-05-07 14:18 | 52.91240 | 12.27559 | 1499 ft | 175 kts | 278° |
| 2026-05-07 14:19 | 52.91353 | 12.25545 | 1504 ft | 175 kts | 278° |
| 2026-05-07 14:19 | 52.91466 | 12.23513 | 1496 ft | 176 kts | 278° |
| 2026-05-07 14:19 | 52.91578 | 12.21529 | 1502 ft | 173 kts | 277° |
| 2026-05-07 14:19 | 52.91695 | 12.19566 | 1506 ft | 173 kts | 278° |
| 2026-05-07 14:20 | 52.91803 | 12.17560 | 1510 ft | 174 kts | 277° |
| 2026-05-07 14:20 | 52.91913 | 12.15555 | 1501 ft | 175 kts | 278° |
| 2026-05-07 14:20 | 52.92024 | 12.13584 | 1511 ft | 174 kts | 278° |
| 2026-05-07 14:20 | 52.92139 | 12.11573 | 1515 ft | 175 kts | 277° |
| 2026-05-07 14:21 | 52.92256 | 12.09555 | 1505 ft | 179 kts | 278° |
| 2026-05-07 14:21 | 52.92368 | 12.07500 | 1508 ft | 177 kts | 277° |
| 2026-05-07 14:21 | 52.92475 | 12.05505 | 1501 ft | 174 kts | 277° |
| 2026-05-07 14:21 | 52.92582 | 12.03493 | 1492 ft | 174 kts | 277° |
| 2026-05-07 14:22 | 52.92687 | 12.01522 | 1498 ft | 171 kts | 278° |
| 2026-05-07 14:22 | 52.92793 | 11.99550 | 1497 ft | 170 kts | 277° |
| 2026-05-07 14:22 | 52.92909 | 11.97587 | 1503 ft | 171 kts | 279° |
| 2026-05-07 14:22 | 52.93017 | 11.95594 | 1509 ft | 174 kts | 277° |
| 2026-05-07 14:23 | 52.93123 | 11.93594 | 1512 ft | 177 kts | 277° |
| 2026-05-07 14:23 | 52.93233 | 11.91552 | 1513 ft | 177 kts | 278° |
| 2026-05-07 14:23 | 52.93343 | 11.89528 | 1511 ft | 179 kts | 278° |
| 2026-05-07 14:23 | 52.93456 | 11.87483 | 1502 ft | 176 kts | 278° |
| 2026-05-07 14:24 | 52.93561 | 11.85438 | 1506 ft | 177 kts | 278° |
| 2026-05-07 14:24 | 52.93671 | 11.83432 | 1501 ft | 174 kts | 277° |
| 2026-05-07 14:24 | 52.93770 | 11.81442 | 1500 ft | 175 kts | 278° |
| 2026-05-07 14:24 | 52.93877 | 11.79435 | 1504 ft | 173 kts | 278° |
| 2026-05-07 14:25 | 52.93974 | 11.77437 | 1515 ft | 173 kts | 279° |
| 2026-05-07 14:25 | 52.94085 | 11.75471 | 1515 ft | 173 kts | 277° |
| 2026-05-07 14:25 | 52.94290 | 11.73512 | 1503 ft | 169 kts | 288° |
| 2026-05-07 14:25 | 52.94607 | 11.71644 | 1501 ft | 169 kts | 289° |
| 2026-05-07 14:26 | 52.94897 | 11.69752 | 1497 ft | 168 kts | 287° |
| 2026-05-07 14:26 | 52.95179 | 11.67859 | 1507 ft | 170 kts | 287° |
| 2026-05-07 14:26 | 52.95457 | 11.65974 | 1513 ft | 169 kts | 286° |
| 2026-05-07 14:26 | 52.95729 | 11.64080 | 1502 ft | 170 kts | 286° |
| 2026-05-07 14:27 | 52.96012 | 11.62181 | 1507 ft | 169 kts | 288° |
| 2026-05-07 14:27 | 52.96302 | 11.60272 | 1517 ft | 170 kts | 287° |
| 2026-05-07 14:27 | 52.96588 | 11.58383 | 1509 ft | 170 kts | 287° |
| 2026-05-07 14:27 | 52.96883 | 11.56472 | 1502 ft | 171 kts | 286° |
| 2026-05-07 14:28 | 52.97162 | 11.54554 | 1505 ft | 170 kts | 286° |
| 2026-05-07 14:28 | 52.97441 | 11.52677 | 1508 ft | 168 kts | 287° |
| 2026-05-07 14:28 | 52.97720 | 11.50783 | 1508 ft | 168 kts | 286° |
| 2026-05-07 14:28 | 52.97998 | 11.48898 | 1511 ft | 168 kts | 287° |
| 2026-05-07 14:29 | 52.98274 | 11.47016 | 1510 ft | 169 kts | 286° |
| 2026-05-07 14:29 | 52.98554 | 11.45113 | 1511 ft | 169 kts | 286° |
| 2026-05-07 14:29 | 52.98830 | 11.43235 | 1507 ft | 169 kts | 286° |
| 2026-05-07 14:29 | 52.99110 | 11.41326 | 1505 ft | 169 kts | 286° |
| 2026-05-07 14:30 | 52.99389 | 11.39450 | 1506 ft | 168 kts | 286° |
| 2026-05-07 14:30 | 52.99670 | 11.37551 | 1506 ft | 168 kts | 286° |
| 2026-05-07 14:30 | 52.99946 | 11.35681 | 1507 ft | 168 kts | 286° |
| 2026-05-07 14:30 | 53.00223 | 11.33777 | 1503 ft | 169 kts | 286° |
| 2026-05-07 14:31 | 53.00501 | 11.31898 | 1510 ft | 170 kts | 287° |
| 2026-05-07 14:31 | 53.00789 | 11.29973 | 1513 ft | 172 kts | 286° |
| 2026-05-07 14:31 | 53.01073 | 11.28070 | 1511 ft | 170 kts | 287° |
| 2026-05-07 14:31 | 53.01354 | 11.26142 | 1508 ft | 171 kts | 286° |
| 2026-05-07 14:32 | 53.01637 | 11.24221 | 1502 ft | 170 kts | 287° |
| 2026-05-07 14:32 | 53.01913 | 11.22330 | 1519 ft | 172 kts | 286° |
| 2026-05-07 14:32 | 53.02178 | 11.20400 | 1506 ft | 170 kts | 281° |
| 2026-05-07 14:32 | 53.02302 | 11.18440 | 1514 ft | 170 kts | 277° |
| 2026-05-07 14:33 | 53.02415 | 11.16475 | 1516 ft | 170 kts | 277° |
| 2026-05-07 14:33 | 53.02531 | 11.14502 | 1518 ft | 172 kts | 278° |
| 2026-05-07 14:33 | 53.02652 | 11.12532 | 1518 ft | 174 kts | 277° |
| 2026-05-07 14:33 | 53.02773 | 11.10536 | 1512 ft | 171 kts | 274° |
| 2026-05-07 14:34 | 53.02696 | 11.08576 | 1509 ft | 171 kts | 265° |
| 2026-05-07 14:34 | 53.02417 | 11.06644 | 1515 ft | 173 kts | 254° |
| 2026-05-07 14:34 | 53.02088 | 11.04705 | 1508 ft | 173 kts | 256° |
| 2026-05-07 14:34 | 53.01777 | 11.02807 | 1508 ft | 172 kts | 256° |
| 2026-05-07 14:35 | 53.01456 | 11.00875 | 1513 ft | 174 kts | 256° |
| 2026-05-07 14:35 | 53.01132 | 10.98934 | 1512 ft | 172 kts | 256° |
| 2026-05-07 14:35 | 53.00821 | 10.97030 | 1511 ft | 172 kts | 255° |
| 2026-05-07 14:35 | 53.00501 | 10.95099 | 1522 ft | 174 kts | 256° |
| 2026-05-07 14:36 | 53.00186 | 10.93183 | 1522 ft | 174 kts | 255° |
| 2026-05-07 14:36 | 52.99862 | 10.91236 | 1518 ft | 173 kts | 255° |
| 2026-05-07 14:36 | 52.99546 | 10.89327 | 1516 ft | 171 kts | 255° |
| 2026-05-07 14:36 | 52.99229 | 10.87413 | 1513 ft | 171 kts | 256° |
| 2026-05-07 14:37 | 52.98928 | 10.85522 | 1520 ft | 172 kts | 255° |
| 2026-05-07 14:37 | 52.98303 | 10.81692 | 1513 ft | 171 kts | 255° |
| 2026-05-07 14:37 | 52.98049 | 10.79754 | 1509 ft | 171 kts | 270° |
| 2026-05-07 14:38 | 52.98151 | 10.77807 | 1398 ft | 168 kts | 278° |
| 2026-05-07 14:38 | 52.98265 | 10.75902 | 1255 ft | 163 kts | 277° |
| 2026-05-07 14:38 | 52.98370 | 10.74101 | 1226 ft | 154 kts | 277° |
| 2026-05-07 14:38 | 52.98473 | 10.72339 | 1214 ft | 151 kts | 278° |
| 2026-05-07 14:39 | 52.98560 | 10.70626 | 1214 ft | 147 kts | 276° |
| 2026-05-07 14:39 | 52.98635 | 10.68953 | 1209 ft | 145 kts | 276° |
| 2026-05-07 14:39 | 52.98712 | 10.67230 | 1223 ft | 157 kts | 276° |
| 2026-05-07 14:39 | 52.98793 | 10.65373 | 1228 ft | 161 kts | 276° |
| 2026-05-07 14:40 | 52.98879 | 10.63512 | 1229 ft | 165 kts | 276° |
| 2026-05-07 14:40 | 52.98960 | 10.61595 | 1229 ft | 166 kts | 276° |
| 2026-05-07 14:40 | 52.99042 | 10.59709 | 1232 ft | 165 kts | 275° |
| 2026-05-07 14:40 | 52.99131 | 10.57788 | 1209 ft | 169 kts | 276° |
| 2026-05-07 14:41 | 52.99216 | 10.55856 | 1191 ft | 162 kts | 275° |
| 2026-05-07 14:41 | 52.99299 | 10.54031 | 1199 ft | 155 kts | 275° |
| 2026-05-07 14:41 | 52.99380 | 10.52280 | 1182 ft | 148 kts | 276° |
| 2026-05-07 14:41 | 52.99454 | 10.50622 | 1120 ft | 143 kts | 275° |
| 2026-05-07 14:42 | 52.99526 | 10.48969 | 1005 ft | 147 kts | 274° |
| 2026-05-07 14:42 | 52.99600 | 10.47321 | 1034 ft | 136 kts | 276° |
| 2026-05-07 14:42 | 52.99663 | 10.45835 | 1116 ft | 121 kts | 275° |
| 2026-05-07 14:42 | 52.99704 | 10.44469 | 1095 ft | 121 kts | 274° |
| 2026-05-07 14:43 | 52.99737 | 10.43081 | 1034 ft | 119 kts | 274° |
| 2026-05-07 14:43 | 52.99712 | 10.41721 | 978 ft | 115 kts | 256° |
| 2026-05-07 14:43 | 52.99420 | 10.40516 | 914 ft | 112 kts | 239° |
| 2026-05-07 14:43 | 52.99002 | 10.39590 | 894 ft | 94 kts | 202° |
| 2026-05-07 14:44 | 52.98399 | 10.39648 | 838 ft | 88 kts | 154° |
| 2026-05-07 14:44 | 52.98023 | 10.39937 | 816 ft | 90 kts | 140° |
| 2026-05-07 14:44 | 52.97764 | 10.41120 | 751 ft | 84 kts | 78° |
| 2026-05-07 14:44 | 52.97877 | 10.41717 | 733 ft | 80 kts | 71° |
| 2026-05-07 14:45 | 52.98063 | 10.42579 | 719 ft | 79 kts | 70° |
| 2026-05-07 14:45 | 52.98188 | 10.43446 | 663 ft | 82 kts | 78° |
| 2026-05-07 14:45 | 52.98309 | 10.44297 | 523 ft | 68 kts | 80° |
| 2026-05-07 14:45 | 52.98337 | 10.45071 | 403 ft | 68 kts | 90° |
| 2026-05-07 14:46 | 52.98358 | 10.45844 | 285 ft | 64 kts | 92° |
| 2026-05-07 14:46 | 52.98370 | 10.46467 | 255 ft | 44 kts | 85° |
| 2026-05-07 14:46 | 52.98378 | 10.46706 | 245 ft | 11 kts | 85° |
| 2026-05-07 14:46 | 52.98353 | 10.46777 | 244 ft | 7 kts | 172° |
| 2026-05-07 14:47 | 52.98335 | 10.46776 | 244 ft | 1 kts | 197° |
| 2026-05-07 14:47 | 52.98308 | 10.46775 | 244 ft | 5 kts | 218° |
| 2026-05-07 14:47 | 52.98310 | 10.46767 | 244 ft | 0 kts | 353° |